sensor_id;sensor_type;location;lat;lon;timestamp;P1;durP1;ratioP1;P2;durP2;ratioP2
16099;SDS011;8154;50.830;12.082;2023-07-31T00:01:43;2.92;;;1.15;;
16099;SDS011;8154;50.830;12.082;2023-07-31T00:04:11;3.30;;;1.30;;
16099;SDS011;8154;50.830;12.082;2023-07-31T00:06:38;2.50;;;1.13;;
16099;SDS011;8154;50.830;12.082;2023-07-31T00:09:05;3.03;;;1.30;;
16099;SDS011;8154;50.830;12.082;2023-07-31T00:11:33;3.17;;;1.20;;
16099;SDS011;8154;50.830;12.082;2023-07-31T00:14:00;3.72;;;1.10;;
16099;SDS011;8154;50.830;12.082;2023-07-31T00:16:27;2.92;;;1.23;;
16099;SDS011;8154;50.830;12.082;2023-07-31T00:18:57;2.77;;;1.27;;
16099;SDS011;8154;50.830;12.082;2023-07-31T00:21:24;3.63;;;1.30;;
16099;SDS011;8154;50.830;12.082;2023-07-31T00:23:50;3.70;;;1.20;;
16099;SDS011;8154;50.830;12.082;2023-07-31T00:26:18;3.53;;;1.23;;
16099;SDS011;8154;50.830;12.082;2023-07-31T00:28:45;4.20;;;1.40;;
16099;SDS011;8154;50.830;12.082;2023-07-31T00:31:12;4.23;;;1.60;;
16099;SDS011;8154;50.830;12.082;2023-07-31T00:33:39;3.03;;;1.20;;
16099;SDS011;8154;50.830;12.082;2023-07-31T00:36:05;3.17;;;1.30;;
16099;SDS011;8154;50.830;12.082;2023-07-31T00:38:32;3.08;;;1.10;;
16099;SDS011;8154;50.830;12.082;2023-07-31T00:40:59;3.72;;;1.30;;
16099;SDS011;8154;50.830;12.082;2023-07-31T00:43:25;2.37;;;1.30;;
16099;SDS011;8154;50.830;12.082;2023-07-31T00:45:53;3.40;;;1.40;;
16099;SDS011;8154;50.830;12.082;2023-07-31T00:48:21;3.40;;;1.40;;
16099;SDS011;8154;50.830;12.082;2023-07-31T00:50:48;3.45;;;1.40;;
16099;SDS011;8154;50.830;12.082;2023-07-31T00:53:14;4.18;;;1.30;;
16099;SDS011;8154;50.830;12.082;2023-07-31T00:55:42;4.53;;;1.60;;
16099;SDS011;8154;50.830;12.082;2023-07-31T00:58:09;3.10;;;1.50;;
16099;SDS011;8154;50.830;12.082;2023-07-31T01:00:36;2.88;;;1.30;;
16099;SDS011;8154;50.830;12.082;2023-07-31T01:03:03;4.30;;;1.52;;
16099;SDS011;8154;50.830;12.082;2023-07-31T01:05:39;4.00;;;1.20;;
16099;SDS011;8154;50.830;12.082;2023-07-31T01:11:29;3.67;;;1.30;;
16099;SDS011;8154;50.830;12.082;2023-07-31T01:13:59;2.42;;;1.17;;
16099;SDS011;8154;50.830;12.082;2023-07-31T01:16:27;2.80;;;1.20;;
16099;SDS011;8154;50.830;12.082;2023-07-31T01:18:53;2.42;;;1.23;;
16099;SDS011;8154;50.830;12.082;2023-07-31T01:26:49;3.30;;;1.20;;
16099;SDS011;8154;50.830;12.082;2023-07-31T01:32:10;4.28;;;1.40;;
16099;SDS011;8154;50.830;12.082;2023-07-31T01:34:40;3.77;;;1.47;;
16099;SDS011;8154;50.830;12.082;2023-07-31T01:37:07;4.10;;;1.30;;
16099;SDS011;8154;50.830;12.082;2023-07-31T01:39:34;2.80;;;1.30;;
16099;SDS011;8154;50.830;12.082;2023-07-31T01:42:02;4.03;;;1.20;;
16099;SDS011;8154;50.830;12.082;2023-07-31T01:44:29;3.63;;;1.27;;
16099;SDS011;8154;50.830;12.082;2023-07-31T01:46:56;4.73;;;1.30;;
16099;SDS011;8154;50.830;12.082;2023-07-31T01:49:25;3.55;;;1.40;;
16099;SDS011;8154;50.830;12.082;2023-07-31T01:51:51;3.25;;;1.20;;
16099;SDS011;8154;50.830;12.082;2023-07-31T01:54:18;3.30;;;1.05;;
16099;SDS011;8154;50.830;12.082;2023-07-31T01:56:45;3.03;;;1.40;;
16099;SDS011;8154;50.830;12.082;2023-07-31T01:59:11;3.90;;;1.20;;
16099;SDS011;8154;50.830;12.082;2023-07-31T02:01:37;3.53;;;1.30;;
16099;SDS011;8154;50.830;12.082;2023-07-31T02:04:03;4.05;;;1.27;;
16099;SDS011;8154;50.830;12.082;2023-07-31T02:06:30;3.05;;;1.20;;
16099;SDS011;8154;50.830;12.082;2023-07-31T02:08:57;4.03;;;1.38;;
16099;SDS011;8154;50.830;12.082;2023-07-31T02:11:23;2.70;;;1.23;;
16099;SDS011;8154;50.830;12.082;2023-07-31T02:13:50;4.28;;;1.55;;
16099;SDS011;8154;50.830;12.082;2023-07-31T02:16:18;3.70;;;1.20;;
16099;SDS011;8154;50.830;12.082;2023-07-31T02:18:44;4.63;;;1.50;;
16099;SDS011;8154;50.830;12.082;2023-07-31T02:21:11;3.70;;;1.55;;
16099;SDS011;8154;50.830;12.082;2023-07-31T02:23:37;4.53;;;1.50;;
16099;SDS011;8154;50.830;12.082;2023-07-31T02:26:03;4.47;;;1.50;;
16099;SDS011;8154;50.830;12.082;2023-07-31T02:28:30;5.50;;;1.30;;
16099;SDS011;8154;50.830;12.082;2023-07-31T02:30:57;4.80;;;1.50;;
16099;SDS011;8154;50.830;12.082;2023-07-31T02:33:23;3.60;;;1.40;;
16099;SDS011;8154;50.830;12.082;2023-07-31T02:35:50;4.63;;;1.70;;
16099;SDS011;8154;50.830;12.082;2023-07-31T02:38:16;5.57;;;1.48;;
16099;SDS011;8154;50.830;12.082;2023-07-31T02:40:42;3.17;;;1.20;;
16099;SDS011;8154;50.830;12.082;2023-07-31T02:43:08;4.05;;;1.30;;
16099;SDS011;8154;50.830;12.082;2023-07-31T02:45:35;4.50;;;1.40;;
16099;SDS011;8154;50.830;12.082;2023-07-31T02:48:01;3.50;;;1.27;;
16099;SDS011;8154;50.830;12.082;2023-07-31T02:50:32;4.28;;;1.40;;
16099;SDS011;8154;50.830;12.082;2023-07-31T02:52:58;4.13;;;1.40;;
16099;SDS011;8154;50.830;12.082;2023-07-31T02:55:25;2.17;;;1.13;;
16099;SDS011;8154;50.830;12.082;2023-07-31T02:57:51;5.15;;;1.48;;
16099;SDS011;8154;50.830;12.082;2023-07-31T03:00:18;3.77;;;1.40;;
16099;SDS011;8154;50.830;12.082;2023-07-31T03:02:44;4.50;;;1.48;;
16099;SDS011;8154;50.830;12.082;2023-07-31T03:05:11;4.25;;;1.33;;
16099;SDS011;8154;50.830;12.082;2023-07-31T03:07:37;4.38;;;1.52;;
16099;SDS011;8154;50.830;12.082;2023-07-31T03:10:03;3.75;;;1.30;;
16099;SDS011;8154;50.830;12.082;2023-07-31T03:12:30;3.67;;;1.30;;
16099;SDS011;8154;50.830;12.082;2023-07-31T03:14:56;3.42;;;1.30;;
16099;SDS011;8154;50.830;12.082;2023-07-31T03:17:22;5.60;;;1.50;;
16099;SDS011;8154;50.830;12.082;2023-07-31T03:19:48;3.85;;;1.30;;
16099;SDS011;8154;50.830;12.082;2023-07-31T03:22:15;4.70;;;1.58;;
16099;SDS011;8154;50.830;12.082;2023-07-31T03:24:41;4.67;;;1.40;;
16099;SDS011;8154;50.830;12.082;2023-07-31T03:27:07;3.25;;;1.10;;
16099;SDS011;8154;50.830;12.082;2023-07-31T03:29:34;3.00;;;1.17;;
16099;SDS011;8154;50.830;12.082;2023-07-31T03:32:00;4.63;;;1.27;;
16099;SDS011;8154;50.830;12.082;2023-07-31T03:34:27;4.85;;;1.40;;
16099;SDS011;8154;50.830;12.082;2023-07-31T03:36:56;4.97;;;1.47;;
16099;SDS011;8154;50.830;12.082;2023-07-31T03:39:23;3.22;;;1.33;;
16099;SDS011;8154;50.830;12.082;2023-07-31T03:41:50;3.75;;;1.23;;
16099;SDS011;8154;50.830;12.082;2023-07-31T03:44:18;3.58;;;1.40;;
16099;SDS011;8154;50.830;12.082;2023-07-31T03:46:44;4.07;;;1.30;;
16099;SDS011;8154;50.830;12.082;2023-07-31T03:49:11;3.20;;;1.20;;
16099;SDS011;8154;50.830;12.082;2023-07-31T03:51:37;2.97;;;1.30;;
16099;SDS011;8154;50.830;12.082;2023-07-31T03:54:04;4.95;;;1.70;;
16099;SDS011;8154;50.830;12.082;2023-07-31T03:56:30;4.80;;;1.50;;
16099;SDS011;8154;50.830;12.082;2023-07-31T03:58:56;4.30;;;1.30;;
16099;SDS011;8154;50.830;12.082;2023-07-31T04:01:22;4.87;;;1.37;;
16099;SDS011;8154;50.830;12.082;2023-07-31T04:03:49;3.92;;;1.27;;
16099;SDS011;8154;50.830;12.082;2023-07-31T04:06:15;4.57;;;1.25;;
16099;SDS011;8154;50.830;12.082;2023-07-31T04:08:44;3.72;;;1.25;;
16099;SDS011;8154;50.830;12.082;2023-07-31T04:11:15;3.85;;;1.38;;
16099;SDS011;8154;50.830;12.082;2023-07-31T04:13:47;4.80;;;1.37;;
16099;SDS011;8154;50.830;12.082;2023-07-31T04:16:14;4.75;;;1.40;;
16099;SDS011;8154;50.830;12.082;2023-07-31T04:18:44;3.47;;;1.45;;
16099;SDS011;8154;50.830;12.082;2023-07-31T04:21:14;4.68;;;1.83;;
16099;SDS011;8154;50.830;12.082;2023-07-31T04:23:40;3.53;;;1.40;;
16099;SDS011;8154;50.830;12.082;2023-07-31T04:26:07;3.37;;;1.40;;
16099;SDS011;8154;50.830;12.082;2023-07-31T04:28:33;5.32;;;1.83;;
16099;SDS011;8154;50.830;12.082;2023-07-31T04:30:59;5.60;;;1.80;;
16099;SDS011;8154;50.830;12.082;2023-07-31T04:33:26;4.93;;;2.03;;
16099;SDS011;8154;50.830;12.082;2023-07-31T04:35:52;5.03;;;2.05;;
16099;SDS011;8154;50.830;12.082;2023-07-31T04:38:20;4.37;;;1.80;;
16099;SDS011;8154;50.830;12.082;2023-07-31T04:40:47;5.80;;;2.20;;
16099;SDS011;8154;50.830;12.082;2023-07-31T04:43:13;5.25;;;1.90;;
16099;SDS011;8154;50.830;12.082;2023-07-31T04:45:41;4.38;;;1.70;;
16099;SDS011;8154;50.830;12.082;2023-07-31T04:48:11;3.95;;;1.60;;
16099;SDS011;8154;50.830;12.082;2023-07-31T04:50:37;4.73;;;1.77;;
16099;SDS011;8154;50.830;12.082;2023-07-31T04:53:03;4.38;;;1.75;;
16099;SDS011;8154;50.830;12.082;2023-07-31T04:55:29;3.75;;;1.70;;
16099;SDS011;8154;50.830;12.082;2023-07-31T04:57:57;5.03;;;1.88;;
16099;SDS011;8154;50.830;12.082;2023-07-31T05:00:25;4.43;;;1.80;;
16099;SDS011;8154;50.830;12.082;2023-07-31T05:02:51;4.80;;;1.70;;
16099;SDS011;8154;50.830;12.082;2023-07-31T05:05:17;4.50;;;1.70;;
16099;SDS011;8154;50.830;12.082;2023-07-31T05:07:44;5.63;;;1.70;;
16099;SDS011;8154;50.830;12.082;2023-07-31T05:10:10;4.60;;;1.80;;
16099;SDS011;8154;50.830;12.082;2023-07-31T05:12:36;5.15;;;1.77;;
16099;SDS011;8154;50.830;12.082;2023-07-31T05:15:03;4.10;;;1.70;;
16099;SDS011;8154;50.830;12.082;2023-07-31T05:17:31;4.10;;;1.50;;
16099;SDS011;8154;50.830;12.082;2023-07-31T05:19:57;4.25;;;1.40;;
16099;SDS011;8154;50.830;12.082;2023-07-31T05:22:27;3.80;;;1.48;;
16099;SDS011;8154;50.830;12.082;2023-07-31T05:24:54;3.40;;;1.50;;
16099;SDS011;8154;50.830;12.082;2023-07-31T05:27:20;5.93;;;1.87;;
16099;SDS011;8154;50.830;12.082;2023-07-31T05:29:46;4.38;;;1.55;;
16099;SDS011;8154;50.830;12.082;2023-07-31T05:32:15;4.35;;;1.67;;
16099;SDS011;8154;50.830;12.082;2023-07-31T05:34:42;4.18;;;1.60;;
16099;SDS011;8154;50.830;12.082;2023-07-31T05:37:10;4.30;;;1.70;;
16099;SDS011;8154;50.830;12.082;2023-07-31T05:39:37;3.57;;;1.40;;
16099;SDS011;8154;50.830;12.082;2023-07-31T05:42:03;4.20;;;1.55;;
16099;SDS011;8154;50.830;12.082;2023-07-31T05:44:30;5.43;;;1.50;;
16099;SDS011;8154;50.830;12.082;2023-07-31T05:46:57;4.72;;;1.75;;
16099;SDS011;8154;50.830;12.082;2023-07-31T05:49:23;4.85;;;1.60;;
16099;SDS011;8154;50.830;12.082;2023-07-31T05:51:49;5.47;;;1.63;;
16099;SDS011;8154;50.830;12.082;2023-07-31T05:54:15;4.80;;;1.58;;
16099;SDS011;8154;50.830;12.082;2023-07-31T05:56:42;4.03;;;1.70;;
16099;SDS011;8154;50.830;12.082;2023-07-31T05:59:09;3.95;;;1.30;;
16099;SDS011;8154;50.830;12.082;2023-07-31T06:01:38;3.70;;;1.60;;
16099;SDS011;8154;50.830;12.082;2023-07-31T06:04:04;4.83;;;1.50;;
16099;SDS011;8154;50.830;12.082;2023-07-31T06:06:30;4.32;;;1.67;;
16099;SDS011;8154;50.830;12.082;2023-07-31T06:08:57;3.45;;;1.50;;
16099;SDS011;8154;50.830;12.082;2023-07-31T06:11:23;3.97;;;1.52;;
16099;SDS011;8154;50.830;12.082;2023-07-31T06:13:49;3.38;;;1.50;;
16099;SDS011;8154;50.830;12.082;2023-07-31T06:16:15;3.93;;;1.70;;
16099;SDS011;8154;50.830;12.082;2023-07-31T06:18:42;4.30;;;1.67;;
16099;SDS011;8154;50.830;12.082;2023-07-31T06:21:09;4.93;;;1.73;;
16099;SDS011;8154;50.830;12.082;2023-07-31T06:23:36;3.92;;;1.30;;
16099;SDS011;8154;50.830;12.082;2023-07-31T06:26:03;4.75;;;1.70;;
16099;SDS011;8154;50.830;12.082;2023-07-31T06:28:30;3.83;;;1.60;;
16099;SDS011;8154;50.830;12.082;2023-07-31T06:30:58;4.45;;;1.50;;
16099;SDS011;8154;50.830;12.082;2023-07-31T06:33:24;4.30;;;1.40;;
16099;SDS011;8154;50.830;12.082;2023-07-31T06:35:51;4.50;;;1.50;;
16099;SDS011;8154;50.830;12.082;2023-07-31T06:38:22;4.65;;;1.40;;
16099;SDS011;8154;50.830;12.082;2023-07-31T06:40:51;3.77;;;1.60;;
16099;SDS011;8154;50.830;12.082;2023-07-31T06:43:17;4.38;;;1.42;;
16099;SDS011;8154;50.830;12.082;2023-07-31T06:45:43;3.70;;;1.40;;
16099;SDS011;8154;50.830;12.082;2023-07-31T06:48:10;3.97;;;1.40;;
16099;SDS011;8154;50.830;12.082;2023-07-31T06:50:36;3.35;;;1.42;;
16099;SDS011;8154;50.830;12.082;2023-07-31T06:53:03;4.57;;;1.50;;
16099;SDS011;8154;50.830;12.082;2023-07-31T06:55:29;4.88;;;1.52;;
16099;SDS011;8154;50.830;12.082;2023-07-31T06:57:56;3.13;;;1.20;;
16099;SDS011;8154;50.830;12.082;2023-07-31T07:00:24;4.00;;;1.35;;
16099;SDS011;8154;50.830;12.082;2023-07-31T07:02:51;3.88;;;1.40;;
16099;SDS011;8154;50.830;12.082;2023-07-31T07:05:24;5.23;;;1.83;;
16099;SDS011;8154;50.830;12.082;2023-07-31T07:07:51;4.22;;;1.60;;
16099;SDS011;8154;50.830;12.082;2023-07-31T07:10:18;4.85;;;1.60;;
16099;SDS011;8154;50.830;12.082;2023-07-31T07:12:44;4.32;;;1.50;;
16099;SDS011;8154;50.830;12.082;2023-07-31T07:15:10;3.50;;;1.60;;
16099;SDS011;8154;50.830;12.082;2023-07-31T07:17:37;4.00;;;1.40;;
16099;SDS011;8154;50.830;12.082;2023-07-31T07:20:05;4.38;;;1.50;;
16099;SDS011;8154;50.830;12.082;2023-07-31T07:22:32;4.68;;;1.50;;
16099;SDS011;8154;50.830;12.082;2023-07-31T07:24:59;5.80;;;1.45;;
16099;SDS011;8154;50.830;12.082;2023-07-31T07:27:27;4.53;;;1.50;;
16099;SDS011;8154;50.830;12.082;2023-07-31T07:29:54;4.63;;;1.73;;
16099;SDS011;8154;50.830;12.082;2023-07-31T07:32:21;4.38;;;1.58;;
16099;SDS011;8154;50.830;12.082;2023-07-31T07:34:48;3.55;;;1.40;;
16099;SDS011;8154;50.830;12.082;2023-07-31T07:37:14;4.45;;;1.67;;
16099;SDS011;8154;50.830;12.082;2023-07-31T07:39:42;3.67;;;1.50;;
16099;SDS011;8154;50.830;12.082;2023-07-31T07:42:08;4.90;;;1.63;;
16099;SDS011;8154;50.830;12.082;2023-07-31T07:44:35;4.07;;;1.58;;
16099;SDS011;8154;50.830;12.082;2023-07-31T07:47:01;3.90;;;1.60;;
16099;SDS011;8154;50.830;12.082;2023-07-31T07:49:28;4.38;;;1.55;;
16099;SDS011;8154;50.830;12.082;2023-07-31T07:51:55;4.75;;;1.73;;
16099;SDS011;8154;50.830;12.082;2023-07-31T07:54:22;4.20;;;1.77;;
16099;SDS011;8154;50.830;12.082;2023-07-31T07:56:49;5.13;;;1.65;;
16099;SDS011;8154;50.830;12.082;2023-07-31T07:59:16;3.20;;;1.30;;
16099;SDS011;8154;50.830;12.082;2023-07-31T08:01:42;4.65;;;1.60;;
16099;SDS011;8154;50.830;12.082;2023-07-31T08:04:11;3.45;;;1.58;;
16099;SDS011;8154;50.830;12.082;2023-07-31T08:06:38;4.37;;;1.80;;
16099;SDS011;8154;50.830;12.082;2023-07-31T08:09:05;4.13;;;1.60;;
16099;SDS011;8154;50.830;12.082;2023-07-31T08:11:32;3.88;;;1.67;;
16099;SDS011;8154;50.830;12.082;2023-07-31T08:13:59;6.00;;;1.70;;
16099;SDS011;8154;50.830;12.082;2023-07-31T08:16:25;4.50;;;1.55;;
16099;SDS011;8154;50.830;12.082;2023-07-31T08:18:52;3.87;;;1.57;;
16099;SDS011;8154;50.830;12.082;2023-07-31T08:21:19;3.60;;;1.40;;
16099;SDS011;8154;50.830;12.082;2023-07-31T08:23:46;4.25;;;1.50;;
16099;SDS011;8154;50.830;12.082;2023-07-31T08:26:16;3.72;;;1.45;;
16099;SDS011;8154;50.830;12.082;2023-07-31T08:28:43;4.07;;;1.70;;
16099;SDS011;8154;50.830;12.082;2023-07-31T08:31:11;4.17;;;1.70;;
16099;SDS011;8154;50.830;12.082;2023-07-31T08:33:38;4.07;;;1.58;;
16099;SDS011;8154;50.830;12.082;2023-07-31T08:36:06;4.97;;;1.70;;
16099;SDS011;8154;50.830;12.082;2023-07-31T08:38:33;4.80;;;1.77;;
16099;SDS011;8154;50.830;12.082;2023-07-31T08:41:03;6.55;;;1.88;;
16099;SDS011;8154;50.830;12.082;2023-07-31T08:43:30;3.37;;;1.37;;
16099;SDS011;8154;50.830;12.082;2023-07-31T08:45:58;4.07;;;1.50;;
16099;SDS011;8154;50.830;12.082;2023-07-31T08:48:25;5.85;;;1.60;;
16099;SDS011;8154;50.830;12.082;2023-07-31T08:50:56;3.60;;;1.52;;
16099;SDS011;8154;50.830;12.082;2023-07-31T08:53:22;4.65;;;1.70;;
16099;SDS011;8154;50.830;12.082;2023-07-31T08:55:49;3.10;;;1.40;;
16099;SDS011;8154;50.830;12.082;2023-07-31T08:58:19;4.10;;;1.60;;
16099;SDS011;8154;50.830;12.082;2023-07-31T09:00:49;5.13;;;1.60;;
16099;SDS011;8154;50.830;12.082;2023-07-31T09:03:18;4.72;;;1.60;;
16099;SDS011;8154;50.830;12.082;2023-07-31T09:05:47;4.30;;;1.50;;
16099;SDS011;8154;50.830;12.082;2023-07-31T09:08:17;3.87;;;1.50;;
16099;SDS011;8154;50.830;12.082;2023-07-31T09:10:45;4.30;;;2.00;;
16099;SDS011;8154;50.830;12.082;2023-07-31T09:13:13;4.68;;;1.95;;
16099;SDS011;8154;50.830;12.082;2023-07-31T09:15:41;2.88;;;1.27;;
16099;SDS011;8154;50.830;12.082;2023-07-31T09:18:10;6.22;;;1.92;;
16099;SDS011;8154;50.830;12.082;2023-07-31T09:20:37;4.40;;;1.80;;
16099;SDS011;8154;50.830;12.082;2023-07-31T09:23:09;4.90;;;1.80;;
16099;SDS011;8154;50.830;12.082;2023-07-31T09:25:38;4.30;;;1.65;;
16099;SDS011;8154;50.830;12.082;2023-07-31T09:28:09;4.22;;;1.70;;
16099;SDS011;8154;50.830;12.082;2023-07-31T09:30:44;4.68;;;1.55;;
16099;SDS011;8154;50.830;12.082;2023-07-31T09:33:15;4.23;;;1.70;;
16099;SDS011;8154;50.830;12.082;2023-07-31T09:35:43;5.35;;;1.90;;
16099;SDS011;8154;50.830;12.082;2023-07-31T09:38:11;4.75;;;1.58;;
16099;SDS011;8154;50.830;12.082;2023-07-31T09:40:46;4.95;;;1.55;;
16099;SDS011;8154;50.830;12.082;2023-07-31T09:43:18;4.03;;;1.73;;
16099;SDS011;8154;50.830;12.082;2023-07-31T09:45:46;5.03;;;1.60;;
16099;SDS011;8154;50.830;12.082;2023-07-31T09:48:14;4.50;;;1.60;;
16099;SDS011;8154;50.830;12.082;2023-07-31T09:50:43;3.92;;;1.50;;
16099;SDS011;8154;50.830;12.082;2023-07-31T09:53:14;4.60;;;1.65;;
16099;SDS011;8154;50.830;12.082;2023-07-31T09:55:42;3.30;;;1.60;;
16099;SDS011;8154;50.830;12.082;2023-07-31T09:58:12;3.87;;;1.57;;
16099;SDS011;8154;50.830;12.082;2023-07-31T10:00:39;4.30;;;1.42;;
16099;SDS011;8154;50.830;12.082;2023-07-31T10:03:07;5.30;;;1.80;;
16099;SDS011;8154;50.830;12.082;2023-07-31T10:08:09;3.67;;;1.48;;
16099;SDS011;8154;50.830;12.082;2023-07-31T10:10:43;3.83;;;1.70;;
16099;SDS011;8154;50.830;12.082;2023-07-31T10:13:11;4.15;;;1.55;;
16099;SDS011;8154;50.830;12.082;2023-07-31T10:15:39;3.58;;;1.67;;
16099;SDS011;8154;50.830;12.082;2023-07-31T10:18:12;3.90;;;1.60;;
16099;SDS011;8154;50.830;12.082;2023-07-31T10:20:42;4.20;;;1.60;;
16099;SDS011;8154;50.830;12.082;2023-07-31T10:23:11;4.70;;;1.80;;
16099;SDS011;8154;50.830;12.082;2023-07-31T10:25:39;4.78;;;1.55;;
16099;SDS011;8154;50.830;12.082;2023-07-31T10:28:11;3.22;;;1.42;;
16099;SDS011;8154;50.830;12.082;2023-07-31T10:30:39;3.78;;;1.67;;
16099;SDS011;8154;50.830;12.082;2023-07-31T10:33:07;4.60;;;1.40;;
16099;SDS011;8154;50.830;12.082;2023-07-31T10:35:35;3.67;;;1.40;;
16099;SDS011;8154;50.830;12.082;2023-07-31T10:38:12;3.65;;;1.70;;
16099;SDS011;8154;50.830;12.082;2023-07-31T10:41:13;4.78;;;1.88;;
16099;SDS011;8154;50.830;12.082;2023-07-31T10:43:40;3.97;;;1.60;;
16099;SDS011;8154;50.830;12.082;2023-07-31T10:46:08;4.53;;;1.75;;
16099;SDS011;8154;50.830;12.082;2023-07-31T10:48:35;3.77;;;1.80;;
16099;SDS011;8154;50.830;12.082;2023-07-31T10:51:07;3.60;;;1.40;;
16099;SDS011;8154;50.830;12.082;2023-07-31T10:53:45;5.10;;;1.85;;
16099;SDS011;8154;50.830;12.082;2023-07-31T10:56:12;4.20;;;1.50;;
16099;SDS011;8154;50.830;12.082;2023-07-31T10:58:45;4.78;;;1.70;;
16099;SDS011;8154;50.830;12.082;2023-07-31T11:01:13;3.97;;;1.67;;
16099;SDS011;8154;50.830;12.082;2023-07-31T11:03:46;5.00;;;1.90;;
16099;SDS011;8154;50.830;12.082;2023-07-31T11:06:15;5.93;;;1.80;;
16099;SDS011;8154;50.830;12.082;2023-07-31T11:08:43;4.75;;;1.60;;
16099;SDS011;8154;50.830;12.082;2023-07-31T11:11:12;4.25;;;1.90;;
16099;SDS011;8154;50.830;12.082;2023-07-31T11:13:44;4.73;;;1.60;;
16099;SDS011;8154;50.830;12.082;2023-07-31T11:16:15;4.35;;;1.67;;
16099;SDS011;8154;50.830;12.082;2023-07-31T11:18:43;5.30;;;1.90;;
16099;SDS011;8154;50.830;12.082;2023-07-31T11:21:18;4.13;;;1.60;;
16099;SDS011;8154;50.830;12.082;2023-07-31T11:23:47;4.72;;;1.60;;
16099;SDS011;8154;50.830;12.082;2023-07-31T11:26:16;3.50;;;1.43;;
16099;SDS011;8154;50.830;12.082;2023-07-31T11:28:46;3.42;;;1.60;;
16099;SDS011;8154;50.830;12.082;2023-07-31T11:31:14;4.88;;;1.48;;
16099;SDS011;8154;50.830;12.082;2023-07-31T11:33:41;4.00;;;1.50;;
16099;SDS011;8154;50.830;12.082;2023-07-31T11:36:14;4.30;;;1.80;;
16099;SDS011;8154;50.830;12.082;2023-07-31T11:38:42;3.93;;;1.63;;
16099;SDS011;8154;50.830;12.082;2023-07-31T11:41:09;5.40;;;1.70;;
16099;SDS011;8154;50.830;12.082;2023-07-31T11:43:36;4.53;;;1.73;;
16099;SDS011;8154;50.830;12.082;2023-07-31T11:46:05;4.43;;;1.90;;
16099;SDS011;8154;50.830;12.082;2023-07-31T11:48:33;4.20;;;1.70;;
16099;SDS011;8154;50.830;12.082;2023-07-31T11:51:04;5.53;;;1.63;;
16099;SDS011;8154;50.830;12.082;2023-07-31T11:53:51;3.42;;;1.60;;
16099;SDS011;8154;50.830;12.082;2023-07-31T11:56:22;5.20;;;1.70;;
16099;SDS011;8154;50.830;12.082;2023-07-31T11:58:57;3.38;;;1.50;;
16099;SDS011;8154;50.830;12.082;2023-07-31T12:01:28;3.97;;;1.70;;
16099;SDS011;8154;50.830;12.082;2023-07-31T12:03:56;4.30;;;1.73;;
16099;SDS011;8154;50.830;12.082;2023-07-31T12:06:37;4.43;;;1.60;;
16099;SDS011;8154;50.830;12.082;2023-07-31T12:09:04;4.13;;;1.60;;
16099;SDS011;8154;50.830;12.082;2023-07-31T12:11:42;3.80;;;1.55;;
16099;SDS011;8154;50.830;12.082;2023-07-31T12:16:55;5.00;;;1.77;;
16099;SDS011;8154;50.830;12.082;2023-07-31T12:19:22;4.28;;;1.52;;
16099;SDS011;8154;50.830;12.082;2023-07-31T12:21:49;4.55;;;1.73;;
16099;SDS011;8154;50.830;12.082;2023-07-31T12:24:18;4.32;;;1.65;;
16099;SDS011;8154;50.830;12.082;2023-07-31T12:26:45;3.03;;;1.38;;
16099;SDS011;8154;50.830;12.082;2023-07-31T12:29:13;4.73;;;1.77;;
16099;SDS011;8154;50.830;12.082;2023-07-31T12:31:41;4.03;;;1.55;;
16099;SDS011;8154;50.830;12.082;2023-07-31T12:34:16;3.75;;;1.65;;
16099;SDS011;8154;50.830;12.082;2023-07-31T12:36:44;4.72;;;1.60;;
16099;SDS011;8154;50.830;12.082;2023-07-31T12:39:12;3.00;;;1.50;;
16099;SDS011;8154;50.830;12.082;2023-07-31T12:41:40;4.70;;;1.57;;
16099;SDS011;8154;50.830;12.082;2023-07-31T12:44:07;4.38;;;1.50;;
16099;SDS011;8154;50.830;12.082;2023-07-31T12:46:36;3.90;;;1.52;;
16099;SDS011;8154;50.830;12.082;2023-07-31T12:49:02;5.75;;;2.00;;
16099;SDS011;8154;50.830;12.082;2023-07-31T12:51:29;4.10;;;1.50;;
16099;SDS011;8154;50.830;12.082;2023-07-31T12:53:57;5.07;;;1.70;;
16099;SDS011;8154;50.830;12.082;2023-07-31T12:56:24;5.28;;;1.90;;
16099;SDS011;8154;50.830;12.082;2023-07-31T12:58:51;5.47;;;1.90;;
16099;SDS011;8154;50.830;12.082;2023-07-31T13:01:18;4.05;;;1.80;;
16099;SDS011;8154;50.830;12.082;2023-07-31T13:03:45;4.00;;;1.65;;
16099;SDS011;8154;50.830;12.082;2023-07-31T13:06:13;3.57;;;1.60;;
16099;SDS011;8154;50.830;12.082;2023-07-31T13:08:40;5.00;;;1.73;;
16099;SDS011;8154;50.830;12.082;2023-07-31T13:11:07;4.30;;;1.80;;
16099;SDS011;8154;50.830;12.082;2023-07-31T13:13:35;3.22;;;1.60;;
16099;SDS011;8154;50.830;12.082;2023-07-31T13:16:04;3.63;;;1.65;;
16099;SDS011;8154;50.830;12.082;2023-07-31T13:18:34;4.80;;;1.80;;
16099;SDS011;8154;50.830;12.082;2023-07-31T13:21:02;4.90;;;1.65;;
16099;SDS011;8154;50.830;12.082;2023-07-31T13:23:29;3.35;;;1.50;;
16099;SDS011;8154;50.830;12.082;2023-07-31T13:25:56;3.88;;;1.70;;
16099;SDS011;8154;50.830;12.082;2023-07-31T13:28:23;3.80;;;1.70;;
16099;SDS011;8154;50.830;12.082;2023-07-31T13:30:51;5.43;;;1.80;;
16099;SDS011;8154;50.830;12.082;2023-07-31T13:33:19;3.40;;;1.58;;
16099;SDS011;8154;50.830;12.082;2023-07-31T13:35:49;4.63;;;1.55;;
16099;SDS011;8154;50.830;12.082;2023-07-31T13:38:17;5.53;;;1.50;;
16099;SDS011;8154;50.830;12.082;2023-07-31T13:40:44;4.53;;;1.80;;
16099;SDS011;8154;50.830;12.082;2023-07-31T13:43:12;4.57;;;1.73;;
16099;SDS011;8154;50.830;12.082;2023-07-31T13:45:39;4.45;;;1.50;;
16099;SDS011;8154;50.830;12.082;2023-07-31T13:48:06;3.75;;;1.58;;
16099;SDS011;8154;50.830;12.082;2023-07-31T13:50:33;3.88;;;1.60;;
16099;SDS011;8154;50.830;12.082;2023-07-31T13:53:00;4.70;;;1.60;;
16099;SDS011;8154;50.830;12.082;2023-07-31T13:55:26;4.17;;;1.57;;
16099;SDS011;8154;50.830;12.082;2023-07-31T13:57:53;4.30;;;1.70;;
16099;SDS011;8154;50.830;12.082;2023-07-31T14:00:20;5.90;;;2.03;;
16099;SDS011;8154;50.830;12.082;2023-07-31T14:02:47;3.03;;;1.60;;
16099;SDS011;8154;50.830;12.082;2023-07-31T14:05:14;4.65;;;1.85;;
16099;SDS011;8154;50.830;12.082;2023-07-31T14:07:40;4.97;;;1.93;;
16099;SDS011;8154;50.830;12.082;2023-07-31T14:10:07;5.70;;;2.30;;
16099;SDS011;8154;50.830;12.082;2023-07-31T14:12:34;5.47;;;2.25;;
16099;SDS011;8154;50.830;12.082;2023-07-31T14:15:01;4.00;;;1.83;;
16099;SDS011;8154;50.830;12.082;2023-07-31T14:17:29;7.03;;;2.33;;
16099;SDS011;8154;50.830;12.082;2023-07-31T14:19:56;6.17;;;2.37;;
16099;SDS011;8154;50.830;12.082;2023-07-31T14:22:29;4.85;;;1.88;;
16099;SDS011;8154;50.830;12.082;2023-07-31T14:24:56;5.47;;;2.03;;
16099;SDS011;8154;50.830;12.082;2023-07-31T14:27:23;4.53;;;1.92;;
16099;SDS011;8154;50.830;12.082;2023-07-31T14:29:49;4.97;;;1.80;;
16099;SDS011;8154;50.830;12.082;2023-07-31T14:32:16;4.63;;;1.87;;
16099;SDS011;8154;50.830;12.082;2023-07-31T14:34:42;4.63;;;2.05;;
16099;SDS011;8154;50.830;12.082;2023-07-31T14:37:09;4.47;;;2.10;;
16099;SDS011;8154;50.830;12.082;2023-07-31T14:39:35;5.30;;;1.98;;
16099;SDS011;8154;50.830;12.082;2023-07-31T14:42:03;4.95;;;1.88;;
16099;SDS011;8154;50.830;12.082;2023-07-31T14:44:29;4.17;;;1.73;;
16099;SDS011;8154;50.830;12.082;2023-07-31T14:46:57;6.50;;;2.15;;
16099;SDS011;8154;50.830;12.082;2023-07-31T14:49:24;4.43;;;1.80;;
16099;SDS011;8154;50.830;12.082;2023-07-31T14:51:50;4.00;;;1.75;;
16099;SDS011;8154;50.830;12.082;2023-07-31T14:54:17;4.95;;;2.08;;
16099;SDS011;8154;50.830;12.082;2023-07-31T14:56:43;4.90;;;2.00;;
16099;SDS011;8154;50.830;12.082;2023-07-31T14:59:10;6.10;;;2.00;;
16099;SDS011;8154;50.830;12.082;2023-07-31T15:01:37;4.35;;;1.45;;
16099;SDS011;8154;50.830;12.082;2023-07-31T15:04:05;5.07;;;1.90;;
16099;SDS011;8154;50.830;12.082;2023-07-31T15:06:33;5.35;;;2.00;;
16099;SDS011;8154;50.830;12.082;2023-07-31T15:09:00;5.03;;;2.00;;